Weather History for Zapata, TX

Change the Weather History Date:

Thursday, April 18, 2013

  Actual Average (KLRD) Record (KLRD)
Temperature  
Mean Temperature 77 °F 77 °F  
Max Temperature 87 °F 88 °F 108 °F (2006)
Min Temperature 67 °F 65 °F 41 °F (1921)
Degree Days  
Heating Degree Days 0 0  
Month to date heating degree days 12  
Since 1 July heating degree days 925  
Cooling Degree Days 12 12  
Month to date cooling degree days 185  
Year to date cooling degree days 443  
Growing Degree Days 27 (Base 50)    
Moisture  
Dew Point 51 °F    
Average Humidity 46    
Maximum Humidity 75    
Minimum Humidity 12    
Precipitation  
Precipitation 0.00 in 0.05 in 0.89 in (1981)
Month to date precipitation 0.72  
Year to date precipitation 3.68  
Sea Level Pressure  
Sea Level Pressure 29.73 in    
Wind  
Wind Speed 13 mph (ENE)    
Max Wind Speed 26 mph    
Max Gust Speed 37 mph    
Visibility 8 miles    
Events      
T = Trace of Precipitation, MM = Missing Value Source: NWS Daily Summary

Daily Weather History Graph

Daily Weather History Graph

Search for Another Location

Airport:

Trip Planner

Search our weather history database for the weather conditions in past years. The results will help you decide how hot, cold, wet, or windy it might be!

Date:

Astronomy

Apr. 18, 2013 Rise Set
Actual Time 7:09 AM CDT 8:03 PM CDT
Civil Twilight 6:45 AM CDT 8:27 PM CDT
Nautical Twilight 6:17 AM CDT 8:55 PM CDT
Astronomical Twilight 5:48 AM CDT 9:24 PM CDT
Moon 1:28 PM CDT (4/18) 2:11 AM CDT (4/18)
Length of Visible Light 13h 41m
Length of Day
12h 53m
First Quarter, 52% of the Moon is Illuminated
Apr 18
First Quarter
Apr 25
Full
May 2
Last Quarter
May 9
New
May 17
First Quarter

Hourly Weather History & Observations

Time (CDT) Temp. Heat Index Dew Point Humidity Pressure Visibility Wind Dir Wind Speed Gust Speed Precip Events Conditions
12:15 AM 78.8 °F - 68.9 °F 72% 29.62 in 7.0 mi SE 11.5 mph 17.3 mph N/A   Scattered Clouds
12:35 AM 78.4 °F - 68.9 °F 72% 29.62 in 7.0 mi SE 13.8 mph 17.3 mph N/A   Scattered Clouds
12:55 AM 78.3 °F - 68.9 °F 73% 29.63 in 7.0 mi SE 11.5 mph 17.3 mph N/A   Scattered Clouds
1:15 AM 77.9 °F - 68.9 °F 74% 29.63 in 7.0 mi SE 11.5 mph 16.1 mph N/A   Mostly Cloudy
1:35 AM 77.9 °F - 68.9 °F 74% 29.61 in 7.0 mi SE 12.7 mph 19.6 mph N/A   Overcast
1:55 AM 77.5 °F - 68.9 °F 75% 29.59 in 7.0 mi SE 16.1 mph 21.9 mph N/A   Overcast
2:15 AM 77.9 °F - 68.9 °F 74% 29.59 in 7.0 mi SE 15.0 mph 25.3 mph N/A   Overcast
2:35 AM 77.7 °F - 68.7 °F 74% 29.59 in 7.0 mi SE 16.1 mph 23.0 mph N/A   Overcast
2:55 AM 77.9 °F - 68.9 °F 74% 29.60 in 7.0 mi SE 9.2 mph 23.0 mph N/A   Overcast
3:15 AM 77.5 °F - 68.5 °F 74% 29.60 in 7.0 mi SE 12.7 mph 19.6 mph N/A   Overcast
3:35 AM 77.5 °F - 68.5 °F 74% 29.59 in 7.0 mi SE 15.0 mph 21.9 mph N/A   Overcast
3:55 AM 77.4 °F - 68.4 °F 74% 29.58 in 7.0 mi SE 16.1 mph 21.9 mph N/A   Overcast
4:15 AM 77.0 °F - 68.4 °F 75% 29.57 in 7.0 mi SE 11.5 mph 19.6 mph N/A   Overcast
4:35 AM 76.8 °F - 68.2 °F 75% 29.57 in 5.0 mi SE 13.8 mph 19.6 mph N/A   Haze
4:55 AM 77.0 °F - 68.2 °F 74% 29.57 in 5.0 mi SE 13.8 mph 18.4 mph N/A   Haze
5:15 AM 76.5 °F - 68.0 °F 75% 29.58 in 7.0 mi SE 10.4 mph 18.4 mph N/A   Overcast
5:35 AM 76.3 °F - 68.0 °F 75% 29.57 in 5.0 mi SE 8.1 mph 18.4 mph N/A   Haze
5:55 AM 76.3 °F - 68.0 °F 75% 29.58 in 5.0 mi SE 8.1 mph 23.0 mph N/A   Haze
6:15 AM 76.3 °F - 68.0 °F 75% 29.58 in 7.0 mi SE 10.4 mph 17.3 mph N/A   Overcast
6:35 AM 76.3 °F - 68.0 °F 75% 29.58 in 7.0 mi SE 10.4 mph - N/A   Overcast
6:55 AM 76.5 °F - 68.0 °F 75% 29.59 in 7.0 mi SE 10.4 mph - N/A   Overcast
7:15 AM 76.3 °F - 67.8 °F 75% 29.61 in 7.0 mi SSE 9.2 mph - N/A   Overcast
7:35 AM 76.3 °F - 67.6 °F 74% 29.62 in 5.0 mi SSE 8.1 mph - N/A   Haze
7:55 AM 76.5 °F - 68.0 °F 75% 29.63 in 5.0 mi SE 6.9 mph - N/A   Haze
8:15 AM 76.8 °F - 67.8 °F 74% 29.64 in 5.0 mi SSE 8.1 mph - N/A   Haze
8:35 AM 77.2 °F - 67.6 °F 72% 29.64 in 5.0 mi SSE 8.1 mph 16.1 mph N/A   Haze
8:55 AM 77.9 °F - 67.5 °F 70% 29.64 in 5.0 mi SSE 6.9 mph - N/A   Haze
9:15 AM 79.0 °F - 67.6 °F 68% 29.68 in 5.0 mi SW 3.5 mph - N/A   Haze
9:35 AM 78.4 °F - 67.5 °F 69% 29.71 in 5.0 mi WNW 8.1 mph - N/A   Haze
9:55 AM 79.2 °F - 68.0 °F 69% 29.71 in 5.0 mi West 4.6 mph - N/A   Haze
10:15 AM 81.5 °F 84.1 °F 67.3 °F 62% 29.71 in 5.0 mi WNW 6.9 mph - N/A   Haze
10:35 AM 83.8 °F 86.5 °F 66.9 °F 57% 29.72 in 5.0 mi WNW 8.1 mph - N/A   Haze
10:55 AM 85.8 °F 88.2 °F 66.2 °F 52% 29.72 in 7.0 mi NW 15.0 mph 19.6 mph N/A   Mostly Cloudy
11:15 AM 82.4 °F 82.3 °F 58.6 °F 44% 29.73 in 5.0 mi NW 23.0 mph 33.4 mph N/A   Haze
11:35 AM 82.4 °F 82.0 °F 57.4 °F 42% 29.75 in 4.0 mi NW 26.5 mph 34.5 mph N/A   Haze
11:55 AM 82.8 °F 82.0 °F 55.8 °F 39% 29.76 in 5.0 mi NNW 25.3 mph 32.2 mph N/A   Haze
12:15 PM 82.9 °F 81.8 °F 53.4 °F 36% 29.76 in 5.0 mi NW 24.2 mph 28.8 mph N/A   Haze
12:35 PM 83.1 °F - 49.1 °F 31% 29.76 in 7.0 mi North 18.4 mph 32.2 mph N/A   Clear
12:55 PM 84.4 °F - 45.7 °F 26% 29.77 in 7.0 mi NNW 21.9 mph 35.7 mph N/A   Clear
1:15 PM 85.3 °F - 42.6 °F 22% 29.77 in 7.0 mi North 25.3 mph 32.2 mph N/A   Clear
1:35 PM 86.2 °F - 39.4 °F 19% 29.78 in 7.0 mi North 21.9 mph 36.8 mph N/A   Clear
1:55 PM 86.2 °F - 36.7 °F 17% 29.78 in 7.0 mi North 20.7 mph 35.7 mph N/A   Clear
2:15 PM 87.1 °F - 30.6 °F 13% 29.78 in 10.0 mi North 23.0 mph 34.5 mph N/A   Clear
2:35 PM 86.0 °F - 29.3 °F 13% 29.79 in 10.0 mi NNW 18.4 mph 35.7 mph N/A   Clear
2:55 PM 86.2 °F - 27.3 °F 12% 29.78 in 10.0 mi North 23.0 mph 31.1 mph N/A   Clear
3:15 PM 86.9 °F - 27.9 °F 12% 29.77 in 10.0 mi NNE 23.0 mph 31.1 mph N/A   Clear
3:35 PM 86.0 °F - 27.3 °F 12% 29.76 in 10.0 mi NNE 20.7 mph 26.5 mph N/A   Clear
3:55 PM 86.2 °F - 28.8 °F 13% 29.74 in 10.0 mi NNE 20.7 mph 29.9 mph N/A   Clear
4:15 PM 86.4 °F - 30.0 °F 13% 29.76 in 10.0 mi North 19.6 mph 31.1 mph N/A   Clear
4:35 PM 86.0 °F - 30.6 °F 14% 29.77 in 10.0 mi NNE 17.3 mph 25.3 mph N/A   Clear
4:55 PM 85.3 °F - 31.8 °F 15% 29.77 in 10.0 mi NNE 16.1 mph 25.3 mph N/A   Clear
5:15 PM 85.6 °F - 32.0 °F 15% 29.79 in 10.0 mi North 15.0 mph 24.2 mph N/A   Clear
5:35 PM 83.8 °F - 30.9 °F 15% 29.79 in 10.0 mi North 13.8 mph 20.7 mph N/A   Clear
5:55 PM 83.3 °F - 31.1 °F 15% 29.80 in 10.0 mi North 15.0 mph 20.7 mph N/A   Clear
6:15 PM 82.4 °F - 31.6 °F 16% 29.81 in 10.0 mi North 12.7 mph 20.7 mph N/A   Clear
6:35 PM 81.9 °F - 33.3 °F 17% 29.82 in 10.0 mi NNE 11.5 mph 20.7 mph N/A   Clear
6:55 PM 81.3 °F - 33.1 °F 18% 29.83 in 10.0 mi NNE 15.0 mph 19.6 mph N/A   Clear
7:15 PM 79.3 °F - 33.4 °F 19% 29.84 in 10.0 mi NNE 12.7 mph 18.4 mph N/A   Clear
7:35 PM 77.9 °F - 34.7 °F 21% 29.86 in 10.0 mi NNE 13.8 mph 19.6 mph N/A   Clear
7:55 PM 76.5 °F - 34.7 °F 22% 29.87 in 10.0 mi NNE 12.7 mph 18.4 mph N/A   Clear
8:15 PM 75.4 °F - 34.2 °F 22% 29.89 in 10.0 mi NE 11.5 mph 16.1 mph N/A   Clear
8:35 PM 74.3 °F - 33.4 °F 22% 29.89 in 10.0 mi NNE 12.7 mph 17.3 mph N/A   Clear
9:55 PM 71.2 °F - 32.4 °F 24% 29.97 in 10.0 mi NE 12.7 mph 19.6 mph N/A   Clear
10:15 PM 70.5 °F - 32.0 °F 24% 29.98 in 10.0 mi ENE 9.2 mph 21.9 mph N/A   Clear
10:35 PM 69.8 °F - 32.9 °F 26% 30.00 in 10.0 mi NE 10.4 mph 18.4 mph N/A   Clear
10:55 PM 69.1 °F - 33.1 °F 26% 30.02 in 10.0 mi NE 10.4 mph - N/A   Clear
11:15 PM 68.4 °F - 34.7 °F 29% 30.02 in 10.0 mi NE 11.5 mph 20.7 mph N/A   Clear
11:35 PM 67.6 °F - 35.1 °F 30% 30.03 in 10.0 mi NE 10.4 mph 17.3 mph N/A   Clear
11:55 PM 67.1 °F - 34.7 °F 30% 30.04 in 10.0 mi NE 9.2 mph 16.1 mph N/A   Clear